Flight Track Log - Related Links

Times and Time Zones

All times are in EDT time to prevent confusion due to time zone crossing. See the UPS976 flight status page for this flight to view local times or setup timezone preferences in your user account.

Time Position Orientation Groundspeed Altitude Reporting Facility
EDT Latitude Longitude Course Direction KTS MPH feet Rate Location/Type
Sun 03:00:36 PM 38.1386 -85.7330 172° South 183 211 2,000  Level FlightAware ADS-B
Sun 03:02:28 PM 38.0751 -85.8143 271° West 261 300 5,700 2,067 Climbing FlightAware ADS-B
Sun 03:03:36 PM 38.0744 -85.9192 267° West 271 312 8,200 2,173 Climbing FlightAware ADS-B
Sun 03:04:35 PM 38.0678 -86.0155 266° West 287 330 10,300 2,017 Climbing FlightAware ADS-B
Sun 03:05:35 PM 38.0652 -86.1141 271° West 332 382 12,200 1,723 Climbing FlightAware ADS-B
Sun 03:06:09 PM 38.0674 -86.1791 273° West 375 432 13,000 1,788 Climbing FlightAware ADS-B
Sun 03:07:19 PM 38.0753 -86.3568 273° West 417 480 15,300 2,095 Climbing FlightAware ADS-B
Sun 03:08:15 PM 38.0792 -86.4756 273° West 413 475 17,400 2,209 Climbing Indianapolis Center
Sun 03:10:21 PM 38.0906 -86.7839 273° West 432 497 22,000 2,097 Climbing Kansas City Center
Sun 03:11:21 PM 38.0950 -86.9469 272° West 444 511 23,900 1,869 Climbing Kansas City Center
Sun 03:12:23 PM 38.1011 -87.1153 273° West 461 531 25,800 1,659 Climbing Kansas City Center
Sun 03:13:24 PM 38.1064 -87.2878 272° West 475 547 27,300 1,056 Climbing Kansas City Center
Sun 03:14:28 PM 38.1117 -87.4617 272° West 484 557 28,000 864 Climbing Kansas City Center
Sun 03:15:29 PM 38.1175 -87.6708 272° West 488 562 29,100 1,463 Climbing Kansas City Center
Sun 03:16:31 PM 38.1219 -87.8425 272° West 487 560 31,000 1,694 Climbing Indianapolis Center
Sun 03:17:33 PM 38.1261 -88.0119 272° West 483 556 32,600 1,452 Climbing Indianapolis Center
Sun 03:18:35 PM 38.1297 -88.1789 272° West 477 549 34,000 677 Climbing Indianapolis Center
Sun 03:19:37 PM 38.1342 -88.3403 272° West 464 534 34,000  Level Indianapolis Center
Sun 03:20:39 PM 38.1361 -88.5003 271° West 455 524 34,000  Level Indianapolis Center
Sun 03:21:41 PM 38.1394 -88.6633 272° West 455 524 34,000  Level Indianapolis Center
Sun 03:22:43 PM 38.1419 -88.8597 271° West 458 527 34,000  Level Indianapolis Center
Sun 03:23:45 PM 38.1450 -89.0250 271° West 464 534 34,000  Level Indianapolis Center
Sun 03:24:49 PM 38.1461 -89.2000 271° West 474 545 34,000  Level Kansas City Center
Sun 03:25:50 PM 38.1489 -89.3658 271° West 474 545 34,000  Level Kansas City Center
Sun 03:26:54 PM 38.1506 -89.5331 271° West 474 545 34,000  Level Kansas City Center
Sun 03:27:54 PM 38.1517 -89.6942 271° West 461 531 34,000  Level Kansas City Center
Sun 03:28:56 PM 38.1547 -89.8536 271° West 454 522 34,000  Level Kansas City Center
Sun 03:30:00 PM 38.1550 -90.0164 270° West 455 524 34,000  Level Kansas City Center
Sun 03:31:00 PM 38.1550 -90.2131 270° West 457 526 34,000  Level Kansas City Center
Sun 03:32:04 PM 38.1561 -90.3783 271° West 461 531 34,000  Level Kansas City Center
Sun 03:33:05 PM 38.1564 -90.5422 270° West 462 532 34,000  Level Kansas City Center
Sun 03:34:06 PM 38.1558 -90.7061 270° West 462 532 34,000  Level Kansas City Center
Sun 03:35:10 PM 38.1564 -90.8694 270° West 462 532 34,000  Level Kansas City Center
Sun 03:36:11 PM 38.1561 -91.0333 270° West 462 532 34,000  Level Kansas City Center
Sun 03:37:12 PM 38.1553 -91.2053 270° West 462 532 34,000  Level Kansas City Center
Sun 03:38:16 PM 38.1547 -91.3675 270° West 461 531 34,000  Level Kansas City Center
Sun 03:39:17 PM 38.1542 -91.5289 270° West 460 529 34,000  Level Kansas City Center
Sun 03:40:20 PM 38.1542 -91.7242 270° West 460 529 34,000  Level Kansas City Center
Sun 03:41:20 PM 38.1628 -91.8872 274° West 461 531 34,000  Level Kansas City Center
Sun 03:42:22 PM 38.1717 -92.0500 274° West 464 534 34,000  Level Kansas City Center
Sun 03:43:23 PM 38.1794 -92.2042 274° West 467 537 34,000  Level Kansas City Center
Sun 03:44:27 PM 38.1897 -92.3714 275° West 467 537 34,000  Level Kansas City Center
Sun 03:45:28 PM 38.1983 -92.5661 273° West 467 537 34,000  Level Kansas City Center
Sun 03:46:30 PM 38.2053 -92.7281 273° West 467 537 34,000  Level Kansas City Center
Sun 03:47:33 PM 38.2111 -92.8881 273° West 463 533 34,000  Level Kansas City Center
Sun 03:48:34 PM 38.2183 -93.0494 273° West 461 531 34,000  Level Kansas City Center
Sun 03:49:38 PM 38.2256 -93.2125 273° West 461 531 34,000  Level Kansas City Center
Sun 03:55:31 PM 38.2628 -94.1942 273° West 454 522 34,000  Level FlightAware ADS-B
Sun 03:56:18 PM 38.2669 -94.3172 272° West 455 524 34,000  Level FlightAware ADS-B
Sun 03:57:14 PM 38.2731 -94.4700 272° West 457 526 34,000  Level FlightAware ADS-B
Sun 03:57:32 PM 38.2799 -94.5179 282° West 460 529 34,000  Level FlightAware ADS-B
Sun 03:58:06 PM 38.2990 -94.6065 285° West 460 529 34,000  Level FlightAware ADS-B
Sun 03:58:37 PM 38.3165 -94.6875 286° West 461 531 34,000  Level FlightAware ADS-B
Sun 03:59:07 PM 38.3340 -94.7658 286° West 461 531 34,000  Level FlightAware ADS-B
Sun 03:59:39 PM 38.3522 -94.8494 286° West 461 531 34,000  Level FlightAware ADS-B
Sun 04:03:09 PM 38.4734 -95.4047 1000° North 449 517 34,000  Level FlightAware ADS-B
Sun 04:03:49 PM 38.4957 -95.5081 285° West 467 537 34,000  Level FlightAware ADS-B
Sun 04:04:24 PM 38.5156 -95.6013 285° West 468 539 34,000  Level FlightAware ADS-B
Sun 04:04:56 PM 38.5341 -95.6893 285° West 468 539 34,000  Level FlightAware ADS-B
Sun 04:05:31 PM 38.5535 -95.7797 285° West 467 537 34,000  Level FlightAware ADS-B
Sun 04:06:00 PM 38.5702 -95.8594 285° West 466 536 34,000  Level FlightAware ADS-B
Sun 04:06:33 PM 38.5885 -95.9471 285° West 467 537 34,000  Level FlightAware ADS-B
Sun 04:07:06 PM 38.6067 -96.0349 285° West 466 536 34,000  Level FlightAware ADS-B
Sun 04:07:52 PM 38.6322 -96.1573 285° West 467 537 34,000  Level FlightAware ADS-B
Sun 04:08:41 PM 38.6591 -96.2881 285° West 467 537 34,000  Level FlightAware ADS-B
Sun 04:09:33 PM 38.6877 -96.4274 285° West 468 539 34,000  Level FlightAware ADS-B
Sun 04:10:58 PM 38.7341 -96.6550 285° West 466 536 34,000  Level FlightAware ADS-B
Sun 04:11:28 PM 38.7503 -96.7345 284° West 464 534 34,000  Level FlightAware ADS-B
Sun 04:12:18 PM 38.7764 -96.8640 284° West 462 532 34,000  Level FlightAware ADS-B
Sun 04:12:49 PM 38.7933 -96.9482 284° West 459 528 34,000  Level FlightAware ADS-B
Sun 04:15:39 PM 38.8808 -97.3925 284° West 449 517 34,000  Level FlightAware ADS-B
Sun 04:16:09 PM 38.8961 -97.4697 284° West 447 514 34,000  Level FlightAware ADS-B
Sun 04:16:42 PM 38.9124 -97.5548 284° West 447 514 34,000  Level FlightAware ADS-B
Sun 04:17:14 PM 38.9295 -97.6339 286° West 447 514 34,000  Level FlightAware ADS-B
Sun 04:17:37 PM 38.9437 -97.6945 288° West 444 511 34,000  Level FlightAware ADS-B
Sun 04:18:07 PM 38.9629 -97.7699 288° West 443 510 34,000  Level FlightAware ADS-B
Sun 04:18:38 PM 38.9826 -97.8473 288° West 443 510 34,000  Level FlightAware ADS-B
Sun 04:19:09 PM 39.0022 -97.9248 288° West 442 509 34,000  Level FlightAware ADS-B
Sun 04:19:40 PM 39.0216 -98.0023 288° West 441 507 34,000  Level FlightAware ADS-B
Sun 04:20:11 PM 39.0406 -98.0796 288° West 441 507 34,000  Level FlightAware ADS-B
Sun 04:20:41 PM 39.0593 -98.1542 288° West 440 506 34,000  Level FlightAware ADS-B
Sun 04:21:11 PM 39.0779 -98.2290 288° West 440 506 34,000  Level FlightAware ADS-B
Sun 04:21:55 PM 39.1049 -98.3383 288° West 440 506 34,000  Level FlightAware ADS-B
Sun 04:22:26 PM 39.1234 -98.4130 288° West 438 504 34,000  Level FlightAware ADS-B
Sun 04:22:56 PM 39.1420 -98.4900 287° West 438 504 34,000  Level FlightAware ADS-B
Sun 04:23:30 PM 39.1628 -98.5745 287° West 438 504 34,000  Level FlightAware ADS-B
Sun 04:24:00 PM 39.1811 -98.6490 287° West 437 503 34,000  Level FlightAware ADS-B
Sun 04:24:31 PM 39.1994 -98.7261 287° West 438 504 34,000  Level FlightAware ADS-B
Sun 04:25:02 PM 39.2185 -98.8032 287° West 437 503 34,000  Level FlightAware ADS-B
Sun 04:25:36 PM 39.2384 -98.8851 287° West 436 502 34,000  Level FlightAware ADS-B
Sun 04:26:23 PM 39.2631 -98.9933 287° West 434 499 34,000  Level Denver Center
Sun 04:27:25 PM 39.2986 -99.1369 288° West 435 501 34,000  Level Denver Center
Sun 04:28:26 PM 39.3369 -99.3036 287° West 435 501 34,000  Level Denver Center
Sun 04:29:28 PM 39.3708 -99.4469 287° West 435 501 34,000  Level Denver Center
Sun 04:30:30 PM 39.4103 -99.6142 287° West 436 502 34,000  Level Denver Center
Sun 04:31:32 PM 39.4428 -99.7561 287° West 435 501 34,000  Level Denver Center
Sun 04:32:34 PM 39.4758 -99.8972 287° West 429 494 34,000  Level Denver Center
Sun 04:33:36 PM 39.5164 -100.0600 288° West 429 494 34,000  Level Denver Center
Sun 04:34:38 PM 39.5564 -100.2014 290° West 432 497 34,000  Level Denver Center
Sun 04:40:27 PM 39.7996 -101.0829 289° West 434 499 34,000  Level FlightAware ADS-B (EGNT / NCL)
Sun 04:41:02 PM 39.8229 -101.1714 289° West 433 498 34,000  Level FlightAware ADS-B (EGNT / NCL)
Sun 04:41:35 PM 39.8447 -101.2522 289° West 432 497 34,000  Level FlightAware ADS-B (EGNT / NCL)
Sun 04:42:05 PM 39.8633 -101.3209 289° West 431 496 34,000  Level FlightAware ADS-B (EGNT / NCL)
Sun 04:42:36 PM 39.8845 -101.4015 289° West 431 496 34,000  Level FlightAware ADS-B (EGNT / NCL)
Sun 04:43:07 PM 39.8996 -101.4578 289° West 430 495 34,000  Level FlightAware ADS-B (EGNT / NCL)
Sun 04:43:39 PM 39.9231 -101.5457 289° West 430 495 34,000  Level FlightAware ADS-B (EGNT / NCL)
Sun 04:44:19 PM 39.9490 -101.6436 289° West 431 496 34,000  Level FlightAware ADS-B (EGNT / NCL)
Sun 04:45:17 PM 39.9887 -101.7930 289° West 430 495 34,000  Level FlightAware ADS-B (EGNT / NCL)
Sun 04:45:48 PM 40.0089 -101.8715 289° West 431 496 34,000  Level FlightAware ADS-B (EGNT / NCL)
Sun 04:46:20 PM 40.0295 -101.9500 289° West 431 496 34,000  Level FlightAware ADS-B (EGNT / NCL)
Sun 04:47:01 PM 40.0554 -102.0506 289° West 429 494 34,000  Level FlightAware ADS-B (EGNT / NCL)
Sun 04:47:41 PM 40.0741 -102.1215 289° West 427 491 34,000  Level FlightAware ADS-B (EGNT / NCL)
Sun 04:48:23 PM 40.1045 -102.2388 289° West 429 494 34,000  Level FlightAware ADS-B (EGNT / NCL)
Sun 04:48:54 PM 40.1273 -102.3273 289° West 430 495 34,000  Level FlightAware ADS-B (EGNT / NCL)
Sun 04:49:38 PM 40.1539 -102.4308 288° West 430 495 34,000  Level FlightAware ADS-B (EGNT / NCL)
Sun 04:50:16 PM 40.1774 -102.5244 288° West 430 495 34,000  Level FlightAware ADS-B (EGNT / NCL)
Sun 04:50:58 PM 40.2047 -102.6305 288° West 431 496 34,000  Level FlightAware ADS-B (EGNT / NCL)
Sun 04:51:37 PM 40.2273 -102.7193 288° West 430 495 34,000  Level FlightAware ADS-B (EGNT / NCL)
Sun 04:52:07 PM 40.2467 -102.7985 288° West 431 496 34,000  Level FlightAware ADS-B (EGNT / NCL)
Sun 04:53:07 PM 40.2855 -102.9518 288° West 430 495 34,000  Level FlightAware ADS-B (EGNT / NCL)
Sun 04:53:38 PM 40.3043 -103.0261 288° West 430 495 34,000  Level FlightAware ADS-B (EGNT / NCL)
Sun 04:54:20 PM 40.3303 -103.1327 288° West 431 496 34,000  Level FlightAware ADS-B (EHAM / AMS)
Sun 04:54:50 PM 40.3485 -103.2045 288° West 431 496 34,000  Level FlightAware ADS-B (EGNT / NCL)
Sun 04:55:30 PM 40.3730 -103.3038 288° West 430 495 34,000  Level FlightAware ADS-B (EGNT / NCL)
Sun 04:56:01 PM 40.3922 -103.3830 288° West 430 495 34,000  Level FlightAware ADS-B (EGNT / NCL)
Sun 04:56:32 PM 40.4112 -103.4598 288° West 430 495 34,000  Level FlightAware ADS-B (EHAM / AMS)
Sun 04:57:10 PM 40.4337 -103.5515 288° West 429 494 34,000  Level FlightAware ADS-B (EHAM / AMS)
Sun 04:57:50 PM 40.4582 -103.6526 288° West 427 491 34,000  Level FlightAware ADS-B (EGNT / NCL)
Sun 04:58:20 PM 40.4761 -103.7267 288° West 427 491 34,000  Level FlightAware ADS-B (EGNT / NCL)
Sun 04:58:50 PM 40.4936 -103.7982 288° West 427 491 34,000  Level FlightAware ADS-B (EHAM / AMS)
Sun 04:59:22 PM 40.5130 -103.8774 287° West 428 493 34,000  Level FlightAware ADS-B (EGNT / NCL)
Sun 04:59:53 PM 40.5318 -103.9567 287° West 429 494 34,000  Level FlightAware ADS-B (EHAM / AMS)
Sun 05:00:26 PM 40.5509 -104.0359 287° West 428 493 34,000  Level FlightAware ADS-B (EHAM / AMS)
Sun 05:01:05 PM 40.5742 -104.1351 287° West 427 491 34,000  Level FlightAware ADS-B (EGNT / NCL)
Sun 05:01:35 PM 40.5918 -104.2095 287° West 428 493 34,000  Level FlightAware ADS-B (EHAM / AMS)
Sun 05:02:09 PM 40.6114 -104.2913 287° West 428 493 34,000  Level FlightAware ADS-B (EGNT / NCL)
Sun 05:02:39 PM 40.6289 -104.3658 287° West 428 493 34,000  Level FlightAware ADS-B (EGNT / NCL)
Sun 05:03:10 PM 40.6452 -104.4354 287° West 427 491 34,000  Level FlightAware ADS-B (EGNT / NCL)
Sun 05:03:45 PM 40.6677 -104.5295 287° West 426 490 34,000  Level FlightAware ADS-B (EHAM / AMS)
Sun 05:04:23 PM 40.6901 -104.6259 288° West 423 487 34,000  Level FlightAware ADS-B (EGNT / NCL)
Sun 05:04:56 PM 40.7135 -104.7051 294° West 424 488 34,000  Level FlightAware ADS-B (EHAM / AMS)
Sun 05:05:29 PM 40.7412 -104.7825 296° West 425 489 34,000  Level FlightAware ADS-B (EHAM / AMS)
Sun 05:06:05 PM 40.7722 -104.8638 296° West 425 489 34,000  Level FlightAware ADS-B (EGNT / NCL)
Sun 05:06:39 PM 40.8024 -104.9452 297° West 427 491 34,000  Level FlightAware ADS-B (EHAM / AMS)
Sun 05:07:20 PM 40.8369 -105.0360 296° West 425 489 34,000  Level FlightAware ADS-B (EGNT / NCL)
Sun 05:07:50 PM 40.8627 -105.1057 296° West 425 489 34,000  Level FlightAware ADS-B (EGNT / NCL)
Sun 05:08:26 PM 40.8955 -105.1915 296° West 421 484 34,000  Level FlightAware ADS-B (EHAM / AMS)
Sun 05:08:56 PM 40.9195 -105.2558 296° West 417 480 34,000  Level FlightAware ADS-B (EHAM / AMS)
Sun 05:09:31 PM 40.9515 -105.3423 296° West 416 479 34,000  Level FlightAware ADS-B (EGNT / NCL)
Sun 05:10:03 PM 40.9770 -105.4109 296° West 418 481 34,000  Level FlightAware ADS-B (EGNT / NCL)
Sun 05:10:33 PM 41.0032 -105.4821 296° West 419 482 34,000  Level FlightAware ADS-B (EGNT / NCL)
Sun 05:11:05 PM 41.0307 -105.5563 296° West 424 488 34,000  Level FlightAware ADS-B (EGNT / NCL)
Sun 05:11:35 PM 41.0514 -105.6122 296° West 426 490 34,000  Level FlightAware ADS-B (EGNT / NCL)
Sun 05:12:05 PM 41.0824 -105.6965 296° West 427 491 34,000  Level FlightAware ADS-B (EGNT / NCL)
Sun 05:12:54 PM 41.1252 -105.8141 296° West 426 490 34,000  Level FlightAware ADS-B (EGNT / NCL)
Sun 05:13:37 PM 41.1579 -105.9034 296° West 426 490 34,000  Level FlightAware ADS-B (EGNT / NCL)
Sun 05:14:07 PM 41.1878 -105.9856 295° West 425 489 34,000  Level FlightAware ADS-B (EGNT / NCL)
Sun 05:14:41 PM 41.2035 -106.0305 295° West 423 487 34,000  Level FlightAware ADS-B (EGNT / NCL)
Sun 05:15:18 PM 41.2468 -106.1502 295° West 424 488 34,000  Level FlightAware ADS-B (EGNT / NCL)
Sun 05:15:52 PM 41.2756 -106.2326 295° West 425 489 34,000  Level FlightAware ADS-B (EGNT / NCL)
Sun 05:16:43 PM 41.3169 -106.3491 295° West 429 494 34,000  Level FlightAware ADS-B (EGNT / NCL)
Sun 05:18:05 PM 41.3875 -106.5487 295° West 424 488 34,000  Level FlightAware ADS-B (EGNT / NCL)
Sun 05:18:49 PM 41.4232 -106.6504 295° West 423 487 34,000  Level FlightAware ADS-B (EGNT / NCL)
Sun 05:19:21 PM 41.4501 -106.7257 295° West 422 486 34,000  Level FlightAware ADS-B (EGNT / NCL)
Sun 05:19:56 PM 41.4746 -106.7965 295° West 421 484 34,000  Level FlightAware ADS-B (EGNT / NCL)
Sun 05:21:55 PM 41.5757 -107.0884 295° West 421 484 34,000  Level FlightAware ADS-B (EHAM / AMS)
Sun 05:22:30 PM 41.5887 -107.1261 295° West 422 486 34,000  Level FlightAware ADS-B (EHAM / AMS)
Sun 05:23:08 PM 41.6338 -107.2583 295° West 420 483 34,000  Level FlightAware ADS-B (EHAM / AMS)
Sun 05:24:12 PM 41.6794 -107.3903 295° West 421 484 34,000  Level Salt Lake Center
Sun 05:25:11 PM 41.7328 -107.5472 295° West 421 484 34,000  Level Denver Center
Sun 05:26:13 PM 41.7786 -107.6825 294° West 420 483 34,000  Level Denver Center
Sun 05:27:15 PM 41.8250 -107.8192 295° West 420 483 34,000  Level Denver Center
Sun 05:28:20 PM 41.8775 -107.9786 294° West 421 484 34,000  Level Salt Lake Center
Sun 05:29:22 PM 41.9311 -108.1383 294° West 422 486 34,000  Level Salt Lake Center
Sun 05:30:24 PM 41.9767 -108.2758 294° West 423 487 34,000  Level Salt Lake Center
Sun 05:31:26 PM 42.0303 -108.4364 294° West 424 488 34,000  Level Salt Lake Center
Sun 05:32:28 PM 42.0744 -108.5733 294° West 421 484 34,000  Level Salt Lake Center
Sun 05:33:30 PM 42.1264 -108.7344 294° West 422 486 34,000  Level Salt Lake Center
Sun 05:34:32 PM 42.1708 -108.8725 294° West 422 486 34,000  Level Salt Lake Center
Sun 05:35:34 PM 42.2228 -109.0336 294° West 422 486 34,000  Level Salt Lake Center
Sun 05:36:37 PM 42.2672 -109.1739 293° West 422 486 34,000  Level Salt Lake Center
Sun 05:37:38 PM 42.3189 -109.3347 294° West 422 486 34,000  Level Salt Lake Center
Sun 05:38:40 PM 42.3617 -109.4719 293° West 421 484 34,000  Level Salt Lake Center
Sun 05:39:42 PM 42.4128 -109.6328 293° West 419 482 34,000  Level Salt Lake Center
Sun 05:40:44 PM 42.4550 -109.7700 293° West 417 480 34,000  Level Salt Lake Center
Sun 05:41:47 PM 42.5078 -109.9319 294° West 419 482 34,000  Level Salt Lake Center
Sun 05:42:49 PM 42.5503 -110.0708 293° West 419 482 34,000  Level Salt Lake Center
Sun 05:43:51 PM 42.6000 -110.2353 292° West 419 482 34,000  Level Salt Lake Center
Sun 05:44:53 PM 42.6431 -110.3733 293° West 419 482 34,000  Level Salt Lake Center
Sun 05:45:55 PM 42.6922 -110.5369 292° West 419 482 34,000 -48 Level Salt Lake Center
Sun 05:46:57 PM 42.7314 -110.6692 292° West 419 482 33,900  Descending Salt Lake Center
Sun 05:47:59 PM 42.7769 -110.8186 293° West 421 484 34,000 48 Climbing Salt Lake Center
Sun 05:49:01 PM 42.8308 -110.9983 292° West 423 487 34,000  Level Salt Lake Center
Sun 05:50:03 PM 42.8742 -111.1467 292° West 422 486 34,000  Level Salt Lake Center
Sun 05:51:05 PM 42.9178 -111.2942 292° West 422 486 34,000  Level Salt Lake Center
Sun 05:52:07 PM 42.9606 -111.4422 292° West 421 484 34,000  Level Salt Lake Center
Sun 05:53:09 PM 43.0069 -111.5992 292° West 419 482 34,000  Level Salt Lake Center
Sun 05:58:58 PM 43.2555 -112.4645 291° West 418 481 34,000  Level FlightAware ADS-B
Sun 05:59:46 PM 43.2897 -112.5857 291° West 418 481 34,000  Level FlightAware ADS-B (KBTF)
Sun 06:00:34 PM 43.3227 -112.7026 291° West 421 484 34,000  Level FlightAware ADS-B
Sun 06:01:28 PM 43.3598 -112.8371 291° West 419 482 34,000  Level FlightAware ADS-B
Sun 06:02:09 PM 43.3878 -112.9393 291° West 420 483 34,000  Level FlightAware ADS-B
Sun 06:02:42 PM 43.4105 -113.0217 291° West 419 482 34,000  Level FlightAware ADS-B
Sun 06:03:16 PM 43.4339 -113.1062 291° West 419 482 34,000  Level FlightAware ADS-B (KBTF)
Sun 06:03:49 PM 43.4564 -113.1885 291° West 420 483 34,000  Level FlightAware ADS-B (KBTF)
Sun 06:04:23 PM 43.4789 -113.2711 291° West 420 483 34,000  Level FlightAware ADS-B (KBTF)
Sun 06:05:21 PM 43.5185 -113.4160 290° West 419 482 34,000  Level FlightAware ADS-B (KBTF)
Sun 06:06:02 PM 43.5459 -113.5185 291° West 417 480 34,000  Level FlightAware ADS-B (KBOI)
Sun 06:06:12 PM 43.5529 -113.5458 290° West 418 481 34,000  Level FlightAware ADS-B (KBTF)
Sun 06:06:32 PM 43.5660 -113.5935 291° West 418 481 34,000  Level FlightAware ADS-B (KBOI)
Sun 06:07:03 PM 43.5866 -113.6709 291° West 418 481 34,000  Level FlightAware ADS-B (KBOI)
Sun 06:07:26 PM 43.6025 -113.7310 289° West 415 478 34,000  Level FlightAware ADS-B (KBTF)
Sun 06:07:31 PM 43.6059 -113.7436 291° West 417 480 34,000  Level FlightAware ADS-B (KBOI)
Sun 06:08:06 PM 43.6295 -113.8310 290° West 418 481 34,000  Level FlightAware ADS-B (KBTF)
Sun 06:08:16 PM 43.6357 -113.8534 290° West 418 481 34,000  Level FlightAware ADS-B (KBOI)
Sun 06:08:38 PM 43.6503 -113.9086 289° West 415 478 34,000  Level FlightAware ADS-B (KBTF)
Sun 06:09:12 PM 43.6726 -113.9934 291° West 417 480 34,000  Level FlightAware ADS-B (KBOI)
Sun 06:09:19 PM 43.6779 -114.0134 290° West 417 480 34,000  Level FlightAware ADS-B (KBTF)
Sun 06:09:42 PM 43.6926 -114.0685 291° West 417 480 34,000  Level FlightAware ADS-B (KBOI)
Sun 06:10:11 PM 43.7119 -114.1432 290° West 414 476 34,000  Level FlightAware ADS-B (KBOI)
Sun 06:10:27 PM 43.7219 -114.1806 289° West 412 474 34,000  Level FlightAware ADS-B (KBTF)
Sun 06:10:41 PM 43.7308 -114.2154 290° West 413 475 34,000  Level FlightAware ADS-B (KBOI)
Sun 06:11:02 PM 43.7451 -114.2700 289° West 410 472 34,000  Level FlightAware ADS-B (KBTF)
Sun 06:11:13 PM 43.7511 -114.2922 290° West 412 474 34,000  Level FlightAware ADS-B (KBOI)
Sun 06:12:01 PM 43.7830 -114.4161 290° West 411 473 34,000  Level FlightAware ADS-B (KBOI)
Sun 06:12:31 PM 43.8018 -114.4881 290° West 413 475 34,000  Level FlightAware ADS-B (KBOI)
Sun 06:13:02 PM 43.8223 -114.5678 290° West 413 475 34,000  Level FlightAware ADS-B (KBOI)
Sun 06:13:32 PM 43.8416 -114.6426 290° West 414 476 34,000  Level FlightAware ADS-B (KBOI)
Sun 06:14:02 PM 43.8609 -114.7176 290° West 414 476 34,000  Level FlightAware ADS-B (KBOI)
Sun 06:14:32 PM 43.8796 -114.7903 290° West 415 478 34,000  Level FlightAware ADS-B (KBOI)
Sun 06:15:02 PM 43.8985 -114.8654 290° West 413 475 34,000  Level FlightAware ADS-B (KBOI)
Sun 06:15:32 PM 43.9172 -114.9402 290° West 413 475 34,000  Level FlightAware ADS-B (KBOI)
Sun 06:16:02 PM 43.9371 -115.0177 290° West 413 475 34,000  Level FlightAware ADS-B (KBOI)
Sun 06:16:31 PM 43.9554 -115.0904 290° West 413 475 34,000  Level FlightAware ADS-B (KBOI)
Sun 06:17:01 PM 43.9738 -115.1630 290° West 413 475 34,000  Level FlightAware ADS-B (KBOI)
Sun 06:17:33 PM 43.9937 -115.2430 290° West 413 475 34,000  Level FlightAware ADS-B (KBOI)
Sun 06:18:01 PM 44.0102 -115.3080 289° West 412 474 34,000  Level FlightAware ADS-B (KBOI)
Sun 06:18:32 PM 44.0305 -115.3906 290° West 411 473 34,000  Level FlightAware ADS-B (KBOI)
Sun 06:19:02 PM 44.0458 -115.4505 290° West 411 473 34,000  Level FlightAware ADS-B (KBOI)
Sun 06:19:32 PM 44.0681 -115.5406 289° West 410 472 34,000  Level FlightAware ADS-B (KBOI)
Sun 06:20:01 PM 44.0854 -115.6128 289° West 409 471 34,000  Level FlightAware ADS-B (KBOI)
Sun 06:20:32 PM 44.1047 -115.6898 289° West 409 471 34,000  Level FlightAware ADS-B (KBOI)
Sun 06:21:02 PM 44.1231 -115.7672 289° West 409 471 34,000  Level FlightAware ADS-B (KBOI)
Sun 06:21:33 PM 44.1419 -115.8419 289° West 409 471 34,000  Level FlightAware ADS-B (KBOI)
Sun 06:22:32 PM 44.1777 -115.9889 289° West 407 468 34,000  Level FlightAware ADS-B (KBOI)
Sun 06:23:02 PM 44.1958 -116.0636 289° West 408 470 34,000  Level FlightAware ADS-B (KBOI)
Sun 06:24:02 PM 44.2318 -116.2134 289° West 409 471 34,000  Level FlightAware ADS-B (KBOI)
Sun 06:24:32 PM 44.2498 -116.2885 289° West 408 470 34,000  Level FlightAware ADS-B (KBOI)
Sun 06:25:32 PM 44.2858 -116.4412 289° West 409 471 34,000  Level FlightAware ADS-B (KBOI)
Sun 06:26:03 PM 44.3038 -116.5163 289° West 408 470 34,000  Level FlightAware ADS-B (KBOI)
Sun 06:26:33 PM 44.3215 -116.5915 288° West 408 470 34,000  Level FlightAware ADS-B (KBOI)
Sun 06:27:03 PM 44.3391 -116.6665 289° West 406 467 34,000  Level FlightAware ADS-B (KBOI)
Sun 06:27:32 PM 44.3568 -116.7412 289° West 405 466 34,000  Level FlightAware ADS-B (KBOI)
Sun 06:28:03 PM 44.3741 -116.8156 288° West 404 465 34,000  Level FlightAware ADS-B (KBOI)
Sun 06:28:32 PM 44.3911 -116.8878 288° West 405 466 34,000  Level FlightAware ADS-B (KBOI)
Sun 06:29:02 PM 44.4089 -116.9652 288° West 405 466 34,000  Level FlightAware ADS-B (KBOI)
Sun 06:29:31 PM 44.4252 -117.0349 288° West 405 466 34,000  Level FlightAware ADS-B (KBOI)
Sun 06:30:02 PM 44.4432 -117.1149 288° West 406 467 34,000  Level FlightAware ADS-B (KBOI)
Sun 06:30:33 PM 44.4608 -117.1899 288° West 407 468 34,000  Level FlightAware ADS-B (KBOI)
Sun 06:31:02 PM 44.4775 -117.2626 288° West 406 467 34,000  Level FlightAware ADS-B (KBOI)
Sun 06:31:32 PM 44.4944 -117.3377 288° West 406 467 34,000  Level FlightAware ADS-B (KBOI)
Sun 06:32:02 PM 44.5119 -117.4153 288° West 406 467 34,000  Level FlightAware ADS-B (KBOI)
Sun 06:32:32 PM 44.5291 -117.4904 288° West 406 467 34,000  Level FlightAware ADS-B (KBOI)
Sun 06:33:32 PM 44.5628 -117.6383 288° West 404 465 34,000  Level FlightAware ADS-B (KBOI)
Sun 06:34:02 PM 44.5782 -117.7085 288° West 404 465 34,000  Level FlightAware ADS-B (KBOI)
Sun 06:34:33 PM 44.5967 -117.7908 288° West 404 465 34,000  Level FlightAware ADS-B (KBOI)
Sun 06:35:02 PM 44.6131 -117.8634 288° West 405 466 34,000  Level FlightAware ADS-B (KBOI)
Sun 06:35:32 PM 44.6299 -117.9412 288° West 405 466 34,000  Level FlightAware ADS-B (KBOI)
Sun 06:36:02 PM 44.6466 -118.0164 288° West 404 465 34,000  Level FlightAware ADS-B (KBOI)
Sun 06:36:32 PM 44.6624 -118.0864 288° West 403 464 34,000  Level FlightAware ADS-B (KBOI)
Sun 06:37:02 PM 44.6796 -118.1666 288° West 404 465 34,000  Level FlightAware ADS-B (KBOI)
Sun 06:37:32 PM 44.6960 -118.2419 287° West 405 466 34,000  Level FlightAware ADS-B (KBOI)
Sun 06:38:03 PM 44.7126 -118.3175 287° West 405 466 34,000  Level FlightAware ADS-B (KBOI)
Sun 06:38:30 PM 44.7159 -118.3325 287° West 405 466 34,000  Level FlightAware ADS-B (KBOI)
Sun 06:39:02 PM 44.7451 -118.4662 288° West 406 467 34,000  Level FlightAware ADS-B (KBOI)
Sun 06:39:31 PM 44.7565 -118.5192 287° West 407 468 34,000  Level FlightAware ADS-B (KBOI)
Sun 06:39:43 PM 44.7679 -118.5726 287° West 407 468 34,000  Level FlightAware ADS-B (KPFC)
Sun 06:40:01 PM 44.7707 -118.5850 287° West 406 467 34,000  Level FlightAware ADS-B (KBOI)
Sun 06:40:19 PM 44.7867 -118.6609 287° West 406 467 34,000  Level FlightAware ADS-B (KBOI)
Sun 06:40:41 PM 44.7991 -118.7191 287° West 406 467 34,000  Level FlightAware ADS-B (KPFC)
Sun 06:41:24 PM 44.8221 -118.8252 287° West 406 467 34,000  Level FlightAware ADS-B (KPFC)
Sun 06:41:46 PM 44.8306 -118.8658 287° West 405 466 34,000  Level FlightAware ADS-B (KBOI)
Sun 06:42:22 PM 44.8520 -118.9668 287° West 404 465 34,000  Level FlightAware ADS-B (KBOI)
Sun 06:42:25 PM 44.8551 -118.9820 287° West 405 466 34,000  Level FlightAware ADS-B (KPFC)
Sun 06:42:52 PM 44.8692 -119.0502 287° West 404 465 34,000  Level FlightAware ADS-B (KBOI)
Sun 06:43:11 PM 44.8794 -119.0983 286° West 404 465 34,000  Level FlightAware ADS-B (KPFC)
Sun 06:43:22 PM 44.8852 -119.1261 287° West 404 465 34,000  Level FlightAware ADS-B (KBOI)
Sun 06:43:53 PM 44.9011 -119.2018 287° West 404 465 34,000  Level FlightAware ADS-B (KBOI)
Sun 06:43:58 PM 44.9042 -119.2170 286° West 405 466 34,000  Level FlightAware ADS-B (KPFC)
Sun 06:44:22 PM 44.9164 -119.2750 287° West 405 466 34,000  Level FlightAware ADS-B (KBOI)
Sun 06:44:50 PM 44.9296 -119.3385 287° West 404 465 34,000  Level FlightAware ADS-B (KBOI)
Sun 06:45:22 PM 44.9483 -119.4293 287° West 402 463 34,000  Level FlightAware ADS-B (KBOI)
Sun 06:45:31 PM 44.9531 -119.4520 286° West 403 464 34,000  Level FlightAware ADS-B (KPFC)
Sun 06:45:39 PM 44.9568 -119.4696 287° West 402 463 34,000  Level FlightAware ADS-B (KBOI)
Sun 06:46:12 PM 44.9739 -119.5529 286° West 404 465 34,000  Level FlightAware ADS-B (KPFC)
Sun 06:46:52 PM 44.9949 -119.6569 286° West 404 465 34,000  Level FlightAware ADS-B (KBOI)
Sun 06:47:20 PM 45.0074 -119.7178 287° West 403 464 34,000  Level FlightAware ADS-B (KBOI)
Sun 06:47:33 PM 45.0160 -119.7608 285° West 402 463 34,000  Level FlightAware ADS-B (KPFC)
Sun 06:47:53 PM 45.0255 -119.8062 286° West 403 464 34,000  Level FlightAware ADS-B (KBOI)
Sun 06:47:54 PM 45.0265 -119.8113 286° West 403 464 34,000  Level FlightAware ADS-B
Sun 06:48:19 PM 45.0338 -119.8494 286° West 403 464 34,000  Level FlightAware ADS-B (KBOI)
Sun 06:48:25 PM 45.0425 -119.8923 285° West 400 460 34,000  Level FlightAware ADS-B (KPFC)
Sun 06:48:51 PM 45.0556 -119.9555 286° West 403 464 34,000  Level FlightAware ADS-B (KBOI)
Sun 06:49:05 PM 45.0628 -119.9910 285° West 401 461 34,000  Level FlightAware ADS-B (KPFC)
Sun 06:49:38 PM 45.0794 -120.0747 285° West 402 463 34,000  Level FlightAware ADS-B (KPFC)
Sun 06:50:21 PM 45.1015 -120.1863 286° West 404 465 34,000 -1,434 Level FlightAware ADS-B
Sun 06:51:31 PM 45.1359 -120.3599 284° West 400 460 31,300 -2,549 Descending FlightAware ADS-B (KPFC)
Sun 06:52:14 PM 45.1566 -120.4662 285° West 378 435 29,200 -2,516 Descending FlightAware ADS-B
Sun 06:52:33 PM 45.1599 -120.4829 292° West 369 425 28,700 -1,050 Descending FlightAware ADS-B
Sun 06:52:54 PM 45.1823 -120.5578 295° West 361 415 28,500 -1,217 Descending FlightAware ADS-B
Sun 06:53:42 PM 45.2182 -120.6519 298° West 342 394 27,300 -1,364 Descending FlightAware ADS-B (KPFC)
Sun 06:54:22 PM 45.2488 -120.7315 299° West 336 387 26,500 -1,606 Descending FlightAware ADS-B (KPFC)
Sun 06:54:53 PM 45.2717 -120.7913 298° West 332 382 25,400 -2,028 Descending FlightAware ADS-B
Sun 06:55:33 PM 45.2997 -120.8637 298° West 329 379 24,100 -1,935 Descending FlightAware ADS-B
Sun 06:55:55 PM 45.3172 -120.9094 297° West 325 374 23,400 -1,857 Descending FlightAware ADS-B (KPFC)
Sun 06:56:15 PM 45.3314 -120.9471 297° West 324 373 22,800 -1,900 Descending FlightAware ADS-B (KPFC)
Sun 06:56:55 PM 45.3602 -121.0229 297° West 323 372 21,500 -1,971 Descending FlightAware ADS-B (KPFC)
Sun 06:57:25 PM 45.3816 -121.0797 298° West 328 377 20,500 -2,024 Descending FlightAware ADS-B
Sun 06:58:18 PM 45.4195 -121.1781 298° West 321 369 18,700 -2,053 Descending FlightAware ADS-B
Sun 06:58:41 PM 45.4322 -121.2230 289° West 303 349 17,900 -2,000 Descending FlightAware ADS-B
Sun 06:58:48 PM 45.4349 -121.2344 286° West 293 337 17,700 -1,375 Descending FlightAware ADS-B (KPFC)
Sun 06:59:29 PM 45.4502 -121.3109 284° West 285 328 16,800 -1,556 Descending FlightAware ADS-B (KPFC)
Sun 07:00:09 PM 45.4645 -121.3839 283° West 287 330 15,600 -1,600 Descending FlightAware ADS-B (KPFC)
Sun 07:00:44 PM 45.4766 -121.4462 285° West 281 323 14,800 -892 Descending FlightAware ADS-B
Sun 07:01:23 PM 45.4910 -121.5179 286° West 283 326 14,500 -1,014 Descending FlightAware ADS-B
Sun 07:01:55 PM 45.5022 -121.5754 286° West 284 327 13,600 -1,667 Descending FlightAware ADS-B
Sun 07:02:35 PM 45.5158 -121.6441 286° West 284 327 12,500 -1,558 Descending FlightAware ADS-B
Sun 07:03:12 PM 45.5284 -121.7152 279° West 286 329 11,600 -1,393 Descending FlightAware ADS-B
Sun 07:03:31 PM 45.5298 -121.7502 268° West 275 316 11,200 -1,895 Descending FlightAware ADS-B
Sun 07:03:50 PM 45.5272 -121.7841 261° West 271 312 10,400 -2,250 Descending FlightAware ADS-B
Sun 07:04:27 PM 45.5208 -121.8493 262° West 268 308 9,100 -2,172 Descending FlightAware ADS-B
Sun 07:04:48 PM 45.5173 -121.8807 262° West 266 306 8,300 -2,333 Descending FlightAware ADS-B
Sun 07:05:03 PM 45.5141 -121.9117 262° West 263 303 7,700 -1,765 Descending FlightAware ADS-B (KPFC)
Sun 07:05:39 PM 45.5077 -121.9733 261° West 260 299 6,800 -982 Descending FlightAware ADS-B
Sun 07:05:58 PM 45.5042 -122.0053 261° West 257 296 6,800 -158 Level FlightAware ADS-B
Sun 07:06:17 PM 45.5009 -122.0365 262° West 245 282 6,700 -1,263 Descending FlightAware ADS-B (KPFC)
Sun 07:06:55 PM 45.4946 -122.0952 261° West 244 281 5,600 -1,368 Descending FlightAware ADS-B
Sun 07:07:14 PM 45.4914 -122.1244 261° West 226 260 5,400 -500 Descending FlightAware ADS-B
Sun 07:07:31 PM 45.4889 -122.1474 261° West 217 250 5,300 -324 Descending FlightAware ADS-B (KPFC)
Sun 07:07:51 PM 45.4859 -122.1756 261° West 214 246 5,200 -667 Descending FlightAware ADS-B (KPFC)
Sun 07:08:07 PM 45.4834 -122.1992 261° West 211 243 4,900 -1,543 Descending FlightAware ADS-B
Sun 07:08:26 PM 45.4805 -122.2255 261° West 212 244 4,300 -1,650 Descending FlightAware ADS-B
Sun 07:08:47 PM 45.4775 -122.2548 261° West 215 247 3,800 -1,179 Descending FlightAware ADS-B
Sun 07:09:22 PM 45.4727 -122.3041 273° West 212 244 3,200 -545 Descending FlightAware ADS-B
Sun 07:09:42 PM 45.4793 -122.3249 304° West 195 224 3,300 150 Climbing FlightAware ADS-B
Sun 07:10:02 PM 45.4893 -122.3494 295° West 175 201 3,300 -453 Level FlightAware ADS-B
Sun 07:10:35 PM 45.5010 -122.3807 300° West 170 196 2,900 -833 Descending FlightAware ADS-B
Sun 07:11:14 PM 45.5169 -122.4209 299° West 170 196 2,300 -904 Descending FlightAware ADS-B
Sun 07:11:48 PM 45.5188 -122.4258 300° West 167 192 1,800 -842 Descending FlightAware ADS-B
Sun 07:12:11 PM 45.5369 -122.4720 300° West 162 186 1,500 -789 Descending FlightAware ADS-B
Sun 07:12:26 PM 45.5433 -122.4887 300° West 159 183 1,300 -585 Descending FlightAware ADS-B
Sun 07:13:33 PM 45.5650 -122.5444 300° West 148 170 700 -500 Descending Seattle Center
Sun 07:13:50 PM 45.5683 -122.5558 293° West 141 162 600 -590 Descending Seattle Center
Sun 07:14:34 PM 45.5825 -122.5894 301° West 145 167 100 -682 Descending Seattle Center
Sun 07:16:00 PM 45.5833 -122.5833 139° Southeast  Level FlightAware Approximate
Sun 07:23:00 PM 45.5887 -122.5969 139° Southeast  Level Estimated
Sun 07:24:00 PM 45.5887 -122.5969 139° Southeast  Level Estimated

Login

Don't have an account? Register now (free) for customized features, flight alerts, and more!